Pagrindinis puslapis
METAR-TAF:

METAR-TAF

Oro uostai :

Bethel, Aliaska, Jungtinės Amerikos Valstijos

platuma: 60-46-47N, ilguma: 161-50-16W, Aukštis: 38 m

Dabartinis oras

Ataskaita buvo paskelbta 12 minutes, ne 00:53 UTC
Vėjas 16 kt iš Šiaurės/Šiaurės Vakarų su gūsio iki 24 kt
Temperatūra 6°C
Drėgmė 49%
Slėgis 1008 hPa
Matomumas: 16.1 km
Išsisklaidę debesys ne aukštis 4000 ft

METAR: PABE 240053Z 34016G24KT 10SM SCT040 06/M04 A2977 RMK AO2 PK WND 34027/0023 SLP082 T00561039 $

Laikas: 17:05 (01:05 UTC)

Prognozė

Ataskaita buvo paskelbta 1 valandą ir 28 minutes, ne 23:37 UTC
Prognozė galioja nuo 24 metu 00 UTC su 24 metu 24 UTC
Vėjas 15 kt iš Šiaurės/Šiaurės Vakarų su gūsio iki 25 kt
Matomumas: 10 km
Išsisklaidę debesys ne aukštis 2500 ft
Nuo 24 metu 0400 UTC
Vėjas 10 kt iš Šiaurės Vakarų
Matomumas: 10 km
Giedras dangus
Nuo 24 metu 1200 UTC
Vėjas 3 kt nuo kintamojo kryptimis
Matomumas: 10 km
Giedras dangus

TAF: PABE 232337Z 2400/2424 34015G25KT P6SM SCT025 FM240400 31010KT P6SM SKC FM241200 VRB03KT P6SM SKC

Orai ataskaitas ir orų prognozės (METAR, TAF).

turimą stotys yra geltonos ir raudonos taškus žemėlapyje.

Perkelti pele per norėdami pamatyti stoties vardą.

Tada spustelėkite, norėdami matyti oro stebėjimo ir prognozės.

Norėdami pakeisti žemėlapį: spustelėkite ant žalios mygtukų su juodo kryžiaus žemyn,; žalią mygtuką su brūkšneliu, jei norite nutolinti; arba žalių rodyklių gretimoms žemėlapius.


METAR-TAF: